Marathon Shores, Florida
Current Conditions -  °F | °C
As of 8:53 AM on Sunday 25 Jan 2015 (Local Time) from KMTH Reporting Station
Clear Clear  
Wind Chill: 62°   Ceiling: Unl
Heat Index: 62°   Visibility: 10mi
Dew Point: 56°   Wind: 12mph
Humidity: 80%   Direction: 10°N
Pressure: 30.09"   Gusts: NA
Location:  24.73°N, 81.05°W
Report Text: KMTH 251353Z AUTO 01010KT 10SM CLR 17/13 A3009 RMK AO2 SLP190 T01670133
Loading
Personal Weather Stations






























Interactive Weather Map New forecast layout! Learn more

10-Day Weather Forecast

Advertisements
Track Severe Weather on mobile